Moon Step — V3VU4 — position and weather

sailwx.info

Track history (hours):
 
Tides and Currents Weather Stations Pressure Air Temp Water Temp Dewpoint Dewpoint Depression Visibility Wind Speed Wind Dir Waves Ship Positions

Moon Step

Last reported at 2018-Jan-18 18:46 UTC. Time now 2018-Jan-20 09:38 UTC.
Position N 39°13' W 009°48'.

Length 101 m; draft 3.9 m.

Type: Ship. MMSI: 312008000.

Date/timePositionNaut miles runAvg speedWind from/ knotsBaromVisibWave heightAir tempDewpointWater temp
2018-Jan-18 18:46N 39°13' W 009°48'2 8.3
2018-Jan-18 18:30N 39°11' W 009°48'4 8.2
2018-Jan-18 18:00N 39°07' W 009°49'4 8.1
2018-Jan-18 17:30N 39°03' W 009°50'4 8.0
2018-Jan-18 17:00N 38°59' W 009°51'4 7.9
2018-Jan-18 16:30N 38°55' W 009°51'4 7.9
2018-Jan-18 16:00N 38°51' W 009°51'4 8.3
2018-Jan-18 15:30N 38°47' W 009°52'4 8.1
2018-Jan-18 15:00N 38°43' W 009°51'4 8.0
2018-Jan-18 14:30N 38°39' W 009°50'4 8.0
2018-Jan-18 14:00N 38°35' W 009°48'4 7.5
2018-Jan-18 13:30N 38°32' W 009°47'4 7.8
2018-Jan-18 13:00N 38°28' W 009°46'4 7.7
2018-Jan-18 12:30N 38°24' W 009°45'4 7.7
2018-Jan-18 11:58N 38°20' W 009°44'11 7.8
2018-Jan-18 10:34N 38°10' W 009°40'0 7.4
2018-Jan-18 10:30N 38°09' W 009°40'5 7.9
2018-Jan-18 09:53N 38°04' W 009°39'3 7.9
2018-Jan-18 09:29N 38°01' W 009°38'9 8.3
2018-Jan-18 08:24N 37°53' W 009°36'3 8.1
2018-Jan-18 08:00N 37°49' W 009°35'10 8.4
2018-Jan-18 06:49N 37°40' W 009°32'3 8.7
2018-Jan-18 06:30N 37°37' W 009°31'7 8.3
2018-Jan-18 05:42N 37°31' W 009°29'24 8.0
2018-Jan-18 02:40N 37°07' W 009°23'2 7.9
2018-Jan-18 02:26N 37°05' W 009°22'  
Track history (hours):
 
Tides and Currents Weather Stations Pressure Air Temp Water Temp Dewpoint Dewpoint Depression Visibility Wind Speed Wind Dir Waves Ship Positions

Moon Step

Last reported at 2018-Jan-18 18:46 UTC. Time now 2018-Jan-20 09:38 UTC.
Position N 39°13' W 009°48'.

Length 101 m; draft 3.9 m.

Type: Ship. MMSI: 312008000.

Date/timePositionNaut miles runAvg speedWind from/ knotsBaromVisibWave heightAir tempDewpointWater temp
2018-Jan-18 18:46N 39°13' W 009°48'2 8.3
2018-Jan-18 18:30N 39°11' W 009°48'4 8.2
2018-Jan-18 18:00N 39°07' W 009°49'4 8.1
2018-Jan-18 17:30N 39°03' W 009°50'4 8.0
2018-Jan-18 17:00N 38°59' W 009°51'4 7.9
2018-Jan-18 16:30N 38°55' W 009°51'4 7.9
2018-Jan-18 16:00N 38°51' W 009°51'4 8.3
2018-Jan-18 15:30N 38°47' W 009°52'4 8.1
2018-Jan-18 15:00N 38°43' W 009°51'4 8.0
2018-Jan-18 14:30N 38°39' W 009°50'4 8.0
2018-Jan-18 14:00N 38°35' W 009°48'4 7.5
2018-Jan-18 13:30N 38°32' W 009°47'4 7.8
2018-Jan-18 13:00N 38°28' W 009°46'4 7.7
2018-Jan-18 12:30N 38°24' W 009°45'4 7.7
2018-Jan-18 11:58N 38°20' W 009°44'11 7.8
2018-Jan-18 10:34N 38°10' W 009°40'0 7.4
2018-Jan-18 10:30N 38°09' W 009°40'5 7.9
2018-Jan-18 09:53N 38°04' W 009°39'3 7.9
2018-Jan-18 09:29N 38°01' W 009°38'9 8.3
2018-Jan-18 08:24N 37°53' W 009°36'3 8.1
2018-Jan-18 08:00N 37°49' W 009°35'10 8.4
2018-Jan-18 06:49N 37°40' W 009°32'3 8.7
2018-Jan-18 06:30N 37°37' W 009°31'7 8.3
2018-Jan-18 05:42N 37°31' W 009°29'24 8.0
2018-Jan-18 02:40N 37°07' W 009°23'2 7.9
2018-Jan-18 02:26N 37°05' W 009°22'  

Dump ship's entire track history